Time;durP1;ratioP1;P1;durP2;ratioP2;P2;SDS_P1;SDS_P2;PMS_P1;PMS_P2;Temp;Humidity;BMP_temperature;BMP_pressure;BME280_temperature;BME280_humidity;BME280_pressure;Samples;Min_cycle;Max_cycle;Signal;HPM_P1;HPM_P2
2021/06/04 00:00:08;0.00;0.00;0.62;0.00;0.00;0.62;3.00;2.67;;;27.50;35.30;;;;;;2230443;62;20594;-70
2021/06/04 00:02:40;0.00;0.00;0.62;0.00;0.00;0.62;4.03;2.60;;;27.50;35.40;;;;;;2230453;62;20786;-71
2021/06/04 00:05:09;0.00;0.00;0.62;0.00;0.00;0.62;3.20;2.90;;;27.50;35.20;;;;;;2230619;62;20369;-72
2021/06/04 00:07:38;0.00;0.00;0.62;0.00;0.00;0.62;2.40;2.13;;;27.50;35.30;;;;;;2230499;62;20362;-69
2021/06/04 00:10:08;0.00;0.00;0.62;0.00;0.00;0.62;2.87;2.57;;;27.50;35.30;;;;;;2230474;62;20374;-71
2021/06/04 00:12:35;0.00;0.00;0.62;0.00;0.00;0.62;4.00;2.53;;;27.50;35.20;;;;;;2230539;62;20386;-69
2021/06/04 00:15:10;0.00;0.00;0.62;0.00;0.00;0.62;3.47;2.63;;;27.50;35.80;;;;;;2230419;62;20358;-69
2021/06/04 00:17:37;0.00;0.00;0.62;0.00;0.00;0.62;3.27;2.37;;;27.50;35.10;;;;;;2230361;62;20425;-69
2021/06/04 00:20:12;0.00;0.00;0.62;0.00;0.00;0.62;3.50;2.37;;;27.60;35.20;;;;;;2230162;62;20373;-68
2021/06/04 00:22:39;0.00;0.00;0.62;0.00;0.00;0.62;2.63;2.20;;;27.60;35.20;;;;;;2230326;62;20382;-69
2021/06/04 00:25:07;0.00;0.00;0.62;0.00;0.00;0.62;3.03;2.53;;;27.60;35.10;;;;;;2230393;62;20761;-70
2021/06/04 00:27:34;0.00;0.00;0.62;0.00;0.00;0.62;4.23;2.67;;;27.70;35.10;;;;;;2230645;62;20358;-69
2021/06/04 00:30:06;0.00;0.00;0.62;0.00;0.00;0.62;3.43;2.93;;;27.70;35.00;;;;;;2230286;62;20442;-69
2021/06/04 00:32:33;0.00;0.00;0.62;0.00;0.00;0.62;2.70;2.50;;;27.70;35.00;;;;;;2230412;62;20482;-70
2021/06/04 00:34:59;0.00;0.00;0.62;0.00;0.00;0.62;5.70;3.30;;;27.70;34.90;;;;;;2230617;62;20694;-70
2021/06/04 00:37:26;0.00;0.00;0.62;0.00;0.00;0.62;2.80;2.33;;;27.70;34.90;;;;;;2230321;62;20386;-69
2021/06/04 00:39:53;0.00;0.00;0.62;0.00;0.00;0.62;2.70;2.43;;;27.80;34.90;;;;;;2233123;62;20369;-70
2021/06/04 00:42:27;0.00;0.00;0.62;0.00;0.00;0.62;3.33;2.60;;;27.80;34.80;;;;;;2230414;62;20709;-69
2021/06/04 00:44:57;0.00;0.00;0.62;0.00;0.00;0.62;3.80;2.73;;;27.80;34.80;;;;;;2230391;62;20367;-70
2021/06/04 00:47:28;0.00;0.00;0.62;0.00;0.00;0.62;2.60;2.37;;;27.80;34.70;;;;;;2229887;62;20405;-70
2021/06/04 00:49:56;0.00;0.00;0.62;0.00;0.00;0.62;3.10;2.50;;;27.80;34.70;;;;;;2230453;62;20359;-70
2021/06/04 00:52:28;0.00;0.00;0.62;0.00;0.00;0.62;2.87;2.67;;;27.90;34.70;;;;;;2230213;62;20390;-69
2021/06/04 00:54:57;0.00;0.00;0.62;0.00;0.00;0.62;2.90;2.60;;;27.90;34.70;;;;;;2229817;62;20596;-70
2021/06/04 00:57:24;0.00;0.00;0.62;0.00;0.00;0.62;2.80;2.60;;;27.90;34.60;;;;;;2230693;62;20588;-70
2021/06/04 01:00:00;0.00;0.00;0.62;0.00;0.00;0.62;3.70;2.80;;;27.90;34.60;;;;;;2230061;62;20599;-70
2021/06/04 01:02:32;0.00;0.00;0.62;0.00;0.00;0.62;2.80;2.40;;;27.90;34.60;;;;;;2229771;62;20646;-70
2021/06/04 01:05:00;0.00;0.00;0.62;0.00;0.00;0.62;4.03;2.83;;;27.90;34.50;;;;;;2230016;62;20366;-70
2021/06/04 01:07:33;0.00;0.00;0.62;0.00;0.00;0.62;3.30;2.83;;;28.00;34.60;;;;;;2232992;62;20656;-70
2021/06/04 01:10:18;0.00;0.00;0.62;0.00;0.00;0.62;2.60;2.40;;;28.00;34.60;;;;;;2229837;62;20695;-68
2021/06/04 01:12:58;0.00;0.00;0.62;0.00;0.00;0.62;2.60;2.40;;;28.00;34.50;;;;;;2233106;62;20432;-70
2021/06/04 01:15:48;0.00;0.00;0.62;0.00;0.00;0.62;3.13;2.40;;;28.00;34.50;;;;;;2233001;62;20437;-69
2021/06/04 01:18:32;0.00;0.00;0.62;0.00;0.00;0.62;3.10;2.70;;;28.00;34.40;;;;;;2230260;62;20430;-70
2021/06/04 01:21:07;0.00;0.00;0.62;0.00;0.00;0.62;2.73;2.40;;;28.00;34.50;;;;;;2229706;62;20368;-69
2021/06/04 01:23:50;0.00;0.00;0.62;0.00;0.00;0.62;3.57;3.20;;;28.00;34.60;;;;;;2229767;62;20370;-70
2021/06/04 01:26:26;0.00;0.00;0.62;0.00;0.00;0.62;3.20;2.77;;;28.00;34.50;;;;;;2230030;62;20365;-69
2021/06/04 01:28:57;0.00;0.00;0.62;0.00;0.00;0.62;3.57;3.27;;;28.00;34.50;;;;;;2229625;62;20358;-70
2021/06/04 01:31:37;0.00;0.00;0.62;0.00;0.00;0.62;3.20;2.90;;;28.00;34.60;;;;;;2229653;62;20390;-69
2021/06/04 01:34:09;0.00;0.00;0.62;0.00;0.00;0.62;3.83;3.40;;;28.00;34.60;;;;;;2230362;62;20371;-70
2021/06/04 01:36:43;0.00;0.00;0.62;0.00;0.00;0.62;5.50;2.63;;;28.00;34.50;;;;;;2232893;62;20354;-69
2021/06/04 01:39:17;0.00;0.00;0.62;0.00;0.00;0.62;4.10;3.00;;;28.00;34.50;;;;;;2232943;62;20362;-70
2021/06/04 01:41:49;0.00;0.00;0.62;0.00;0.00;0.62;3.63;3.30;;;28.00;34.40;;;;;;2232934;62;20741;-70
2021/06/04 01:44:27;0.00;0.00;0.62;0.00;0.00;0.62;3.03;2.30;;;28.00;34.40;;;;;;2229757;62;20725;-70
2021/06/04 01:47:02;0.00;0.00;0.62;0.00;0.00;0.62;3.80;2.70;;;28.00;34.50;;;;;;2229714;62;20365;-68
2021/06/04 01:49:34;0.00;0.00;0.62;0.00;0.00;0.62;3.10;2.90;;;28.00;34.40;;;;;;2230303;62;20574;-69
2021/06/04 01:52:10;0.00;0.00;0.62;0.00;0.00;0.62;2.97;2.73;;;28.00;34.50;;;;;;2229704;62;20778;-69
2021/06/04 01:54:45;0.00;0.00;0.62;0.00;0.00;0.62;3.40;2.60;;;28.00;34.40;;;;;;2229644;62;20591;-70
2021/06/04 01:57:18;0.00;0.00;0.62;0.00;0.00;0.62;3.57;2.77;;;28.00;34.40;;;;;;2229813;62;20386;-70
2021/06/04 01:59:51;0.00;0.00;0.62;0.00;0.00;0.62;3.17;2.87;;;28.00;34.40;;;;;;2230226;62;20714;-71
2021/06/04 02:02:36;0.00;0.00;0.62;0.00;0.00;0.62;3.90;3.10;;;28.00;34.40;;;;;;2229999;62;20379;-71
2021/06/04 02:05:12;0.00;0.00;0.62;0.00;0.00;0.62;2.87;2.57;;;28.00;34.40;;;;;;2229595;62;20369;-69
2021/06/04 02:07:39;0.00;0.00;0.62;0.00;0.00;0.62;2.63;2.43;;;28.00;34.50;;;;;;2230385;62;20632;-71
2021/06/04 02:10:13;0.00;0.00;0.62;0.00;0.00;0.62;3.33;2.87;;;28.00;34.40;;;;;;2232684;62;20367;-70
2021/06/04 02:12:42;0.00;0.00;0.62;0.00;0.00;0.62;2.77;2.27;;;28.10;34.50;;;;;;2229578;62;20394;-71
2021/06/04 02:15:24;0.00;0.00;0.62;0.00;0.00;0.62;3.73;2.60;;;28.10;34.50;;;;;;2232466;62;20457;-70
2021/06/04 02:18:00;0.00;0.00;0.62;0.00;0.00;0.62;2.93;2.63;;;28.10;34.40;;;;;;2232921;62;20394;-69
2021/06/04 02:20:38;0.00;0.00;0.62;0.00;0.00;0.62;2.70;2.50;;;28.10;34.40;;;;;;2232570;62;20374;-71
2021/06/04 02:23:32;0.00;0.00;0.62;0.00;0.00;0.62;3.37;3.07;;;28.10;34.40;;;;;;2229876;62;20746;-70
2021/06/04 02:26:07;0.00;0.00;0.62;0.00;0.00;0.62;2.50;2.30;;;28.10;34.40;;;;;;2229809;62;20453;-70
2021/06/04 02:28:45;0.00;0.00;0.62;0.00;0.00;0.62;3.17;2.87;;;28.10;34.40;;;;;;2229561;62;20489;-70
2021/06/04 02:31:22;0.00;0.00;0.62;0.00;0.00;0.62;3.00;2.70;;;28.10;34.40;;;;;;2229812;62;20378;-70
2021/06/04 02:34:15;0.00;0.00;0.62;0.00;0.00;0.62;2.87;2.37;;;28.10;34.40;;;;;;2229828;62;20362;-70
2021/06/04 02:37:08;0.00;0.00;0.62;0.00;0.00;0.62;3.63;3.30;;;28.10;34.50;;;;;;2229789;62;20386;-69
2021/06/04 02:40:07;0.00;0.00;0.62;0.00;0.00;0.62;3.07;2.67;;;28.10;34.40;;;;;;2229910;62;20745;-70
2021/06/04 02:43:05;0.00;0.00;0.62;0.00;0.00;0.62;3.20;2.87;;;28.10;34.30;;;;;;2232254;62;20805;-68
2021/06/04 02:46:01;0.00;0.00;0.62;0.00;0.00;0.62;3.17;2.63;;;28.10;34.30;;;;;;2229987;62;20362;-69
2021/06/04 02:48:51;0.00;0.00;0.62;0.00;0.00;0.62;3.27;3.00;;;28.10;34.30;;;;;;2230132;62;20389;-70
2021/06/04 02:51:50;0.00;0.00;0.62;0.00;0.00;0.62;3.77;2.87;;;28.10;34.30;;;;;;2229479;62;20664;-71
2021/06/04 02:54:41;0.00;0.00;0.62;0.00;0.00;0.62;3.40;2.20;;;28.10;34.30;;;;;;2229773;62;20447;-70
2021/06/04 02:57:32;0.00;0.00;0.62;0.00;0.00;0.62;2.97;2.67;;;28.10;34.30;;;;;;2229573;62;20396;-71
2021/06/04 03:00:26;0.00;0.00;0.62;0.00;0.00;0.62;2.63;2.43;;;28.10;34.30;;;;;;2229588;62;20371;-71
2021/06/04 03:02:55;0.00;0.00;0.62;0.00;0.00;0.62;2.70;2.40;;;28.10;34.30;;;;;;2230091;62;20481;-71
2021/06/04 03:05:28;0.00;0.00;0.62;0.00;0.00;0.62;2.90;2.60;;;28.10;34.20;;;;;;2232492;62;20371;-71
2021/06/04 03:07:56;0.00;0.00;0.62;0.00;0.00;0.62;3.20;2.90;;;28.10;34.30;;;;;;2229957;62;20368;-70
2021/06/04 03:10:29;0.00;0.00;0.62;0.00;0.00;0.62;2.67;2.47;;;28.10;34.30;;;;;;2230081;62;20366;-69
2021/06/04 03:12:56;0.00;0.00;0.62;0.00;0.00;0.62;3.00;2.70;;;28.10;34.30;;;;;;2232628;62;20394;-69
2021/06/04 03:15:30;0.00;0.00;0.62;0.00;0.00;0.62;2.90;2.60;;;28.10;34.20;;;;;;2232606;62;20366;-69
2021/06/04 03:18:00;0.00;0.00;0.62;0.00;0.00;0.62;2.97;2.70;;;28.10;34.20;;;;;;2229680;62;20386;-70
2021/06/04 03:20:35;0.00;0.00;0.62;0.00;0.00;0.62;3.40;2.60;;;28.10;34.20;;;;;;2229384;62;20719;-69
2021/06/04 03:23:05;0.00;0.00;0.62;0.00;0.00;0.62;3.27;2.67;;;28.10;34.30;;;;;;2230678;62;20386;-70
2021/06/04 03:25:37;0.00;0.00;0.62;0.00;0.00;0.62;3.70;3.30;;;28.10;34.30;;;;;;2231374;62;20358;-69
2021/06/04 03:28:07;0.00;0.00;0.62;0.00;0.00;0.62;2.90;2.70;;;28.10;34.30;;;;;;2231241;62;20355;-71
2021/06/04 03:30:40;0.00;0.00;0.62;0.00;0.00;0.62;2.93;2.60;;;28.10;34.30;;;;;;2230631;62;20373;-71
2021/06/04 03:33:11;0.00;0.00;0.62;0.00;0.00;0.62;2.80;2.60;;;28.10;34.30;;;;;;2230834;62;20453;-70
2021/06/04 03:35:47;0.00;0.00;0.62;0.00;0.00;0.62;3.63;2.67;;;28.10;34.30;;;;;;2233972;62;20810;-70
2021/06/04 03:38:16;0.00;0.00;0.62;0.00;0.00;0.62;4.60;3.07;;;28.10;34.30;;;;;;2230696;62;20382;-71
2021/06/04 03:40:44;0.00;0.00;0.62;0.00;0.00;0.62;3.00;2.80;;;28.10;34.30;;;;;;2230661;62;20363;-72
2021/06/04 03:43:17;0.00;0.00;0.62;0.00;0.00;0.62;3.47;3.17;;;28.10;34.30;;;;;;2231129;62;20723;-70
2021/06/04 03:46:02;0.00;0.00;0.62;0.00;0.00;0.62;3.50;3.20;;;28.10;34.40;;;;;;2230820;62;20368;-70
2021/06/04 03:48:50;0.00;0.00;0.62;0.00;0.00;0.62;4.63;4.20;;;28.10;34.40;;;;;;2230786;62;20357;-69
2021/06/04 03:51:39;0.00;0.00;0.62;0.00;0.00;0.62;3.73;3.33;;;28.10;34.50;;;;;;2231052;62;20409;-69
2021/06/04 03:54:29;0.00;0.00;0.62;0.00;0.00;0.62;3.80;3.50;;;28.10;34.50;;;;;;2231277;62;20445;-70
2021/06/04 03:57:20;0.00;0.00;0.62;0.00;0.00;0.62;4.50;3.90;;;28.00;34.50;;;;;;2231141;62;20793;-69
2021/06/04 04:00:09;0.00;0.00;0.62;0.00;0.00;0.62;3.83;3.40;;;28.00;34.60;;;;;;2230949;62;20439;-70
2021/06/04 04:02:57;0.00;0.00;0.62;0.00;0.00;0.62;4.40;4.00;;;28.00;34.60;;;;;;2231359;62;20393;-69
2021/06/04 04:05:44;0.00;0.00;0.62;0.00;0.00;0.62;3.37;3.07;;;28.00;34.70;;;;;;2230740;62;20421;-70
2021/06/04 04:08:30;0.00;0.00;0.62;0.00;0.00;0.62;3.90;3.50;;;28.00;34.60;;;;;;2230932;62;20588;-68
2021/06/04 04:11:15;0.00;0.00;0.62;0.00;0.00;0.62;3.90;3.50;;;27.90;34.80;;;;;;2231018;62;20272;-70
2021/06/04 04:14:00;0.00;0.00;0.62;0.00;0.00;0.62;3.87;3.47;;;28.00;34.70;;;;;;2230989;62;20410;-71
2021/06/04 04:16:44;0.00;0.00;0.62;0.00;0.00;0.62;3.30;3.00;;;27.90;34.50;;;;;;2231308;62;20365;-68
2021/06/04 04:19:29;0.00;0.00;0.62;0.00;0.00;0.62;4.70;3.50;;;28.00;34.60;;;;;;2230732;62;20361;-68
2021/06/04 04:22:15;0.00;0.00;0.62;0.00;0.00;0.62;4.67;3.83;;;28.00;34.60;;;;;;2230930;62;20631;-68
2021/06/04 04:25:01;0.00;0.00;0.62;0.00;0.00;0.62;4.03;3.73;;;28.00;34.70;;;;;;2231411;62;20374;-70
2021/06/04 04:27:46;0.00;0.00;0.62;0.00;0.00;0.62;4.13;3.73;;;27.90;34.60;;;;;;2233359;62;20373;-69
2021/06/04 04:30:30;0.00;0.00;0.62;0.00;0.00;0.62;4.20;3.90;;;28.00;34.70;;;;;;2230973;62;20628;-69
2021/06/04 04:33:15;0.00;0.00;0.62;0.00;0.00;0.62;3.70;3.40;;;28.00;34.80;;;;;;2231085;62;20423;-67
2021/06/04 04:36:00;0.00;0.00;0.62;0.00;0.00;0.62;3.27;2.90;;;28.00;34.80;;;;;;2230466;62;20442;-69
2021/06/04 04:38:47;0.00;0.00;0.62;0.00;0.00;0.62;5.17;4.27;;;28.00;34.80;;;;;;2230718;62;20389;-65
2021/06/04 04:41:31;0.00;0.00;0.62;0.00;0.00;0.62;4.33;3.60;;;27.90;34.90;;;;;;2230233;62;20398;-63
2021/06/04 04:44:20;0.00;0.00;0.62;0.00;0.00;0.62;4.30;3.90;;;27.90;35.00;;;;;;2230326;62;20354;-72
2021/06/04 04:47:07;0.00;0.00;0.62;0.00;0.00;0.62;6.03;4.07;;;27.90;35.10;;;;;;2232992;62;20405;-72
2021/06/04 04:49:52;0.00;0.00;0.62;0.00;0.00;0.62;4.20;3.80;;;28.00;35.00;;;;;;2230334;62;20441;-69
2021/06/04 04:52:38;0.00;0.00;0.62;0.00;0.00;0.62;4.83;3.80;;;28.00;35.10;;;;;;2230404;62;20454;-70
2021/06/04 04:55:27;0.00;0.00;0.62;0.00;0.00;0.62;5.27;3.83;;;28.00;35.20;;;;;;2230380;62;20434;-69
2021/06/04 04:58:12;0.00;0.00;0.62;0.00;0.00;0.62;4.13;3.73;;;28.00;35.10;;;;;;2230398;62;20389;-71
2021/06/04 05:00:57;0.00;0.00;0.62;0.00;0.00;0.62;4.80;4.40;;;28.00;35.00;;;;;;2230558;62;20374;-68
2021/06/04 05:03:43;0.00;0.00;0.62;0.00;0.00;0.62;4.00;3.60;;;28.00;35.10;;;;;;2230177;62;20395;-69
2021/06/04 05:06:28;0.00;0.00;0.62;0.00;0.00;0.62;4.53;4.13;;;28.00;35.00;;;;;;2230336;62;20486;-72
2021/06/04 05:09:12;0.00;0.00;0.62;0.00;0.00;0.62;3.60;3.30;;;28.00;35.10;;;;;;2230487;62;20370;-68
2021/06/04 05:11:59;0.00;0.00;0.62;0.00;0.00;0.62;4.70;3.63;;;28.00;35.00;;;;;;2230233;62;20660;-73
2021/06/04 05:14:43;0.00;0.00;0.62;0.00;0.00;0.62;4.20;3.60;;;28.00;35.10;;;;;;2230381;62;20389;-70
2021/06/04 05:17:28;0.00;0.00;0.62;0.00;0.00;0.62;4.40;3.60;;;28.00;35.00;;;;;;2230204;62;20407;-68
2021/06/04 05:20:13;0.00;0.00;0.62;0.00;0.00;0.62;4.60;3.40;;;28.00;35.10;;;;;;2230216;62;20366;-73
2021/06/04 05:22:59;0.00;0.00;0.62;0.00;0.00;0.62;3.10;2.80;;;28.00;35.10;;;;;;2230413;62;20426;-71
2021/06/04 05:25:47;0.00;0.00;0.62;0.00;0.00;0.62;3.47;3.17;;;28.00;35.00;;;;;;2230229;62;20430;-67
2021/06/04 05:28:34;0.00;0.00;0.62;0.00;0.00;0.62;3.60;3.30;;;28.10;35.10;;;;;;2230384;62;20766;-68
2021/06/04 05:31:19;0.00;0.00;0.62;0.00;0.00;0.62;4.30;3.47;;;28.10;35.10;;;;;;2230307;62;20678;-65
2021/06/04 05:34:04;0.00;0.00;0.62;0.00;0.00;0.62;3.50;3.20;;;28.10;35.10;;;;;;2230194;62;20753;-64
2021/06/04 05:36:49;0.00;0.00;0.62;0.00;0.00;0.62;3.80;3.40;;;28.10;35.00;;;;;;2230291;62;20615;-67
2021/06/04 05:39:34;0.00;0.00;0.62;0.00;0.00;0.62;3.33;3.03;;;28.10;35.00;;;;;;2230122;62;20443;-69
2021/06/04 05:42:18;0.00;0.00;0.62;0.00;0.00;0.62;3.33;3.03;;;28.10;35.00;;;;;;2230272;62;20381;-67
2021/06/04 05:45:07;0.00;0.00;0.62;0.00;0.00;0.62;4.87;3.30;;;28.10;35.00;;;;;;2230242;62;20403;-68
2021/06/04 05:47:52;0.00;0.00;0.62;0.00;0.00;0.62;3.93;3.53;;;28.20;35.20;;;;;;2230186;62;20369;-67
2021/06/04 05:50:41;0.00;0.00;0.62;0.00;0.00;0.62;4.57;3.20;;;28.20;35.20;;;;;;2230156;62;20487;-67
2021/06/04 05:53:34;0.00;0.00;0.62;0.00;0.00;0.62;3.77;3.33;;;28.20;35.20;;;;;;2230294;62;20611;-67
2021/06/04 05:56:21;0.00;0.00;0.62;0.00;0.00;0.62;3.20;2.90;;;28.20;35.30;;;;;;2230196;62;20393;-68
2021/06/04 05:59:06;0.00;0.00;0.62;0.00;0.00;0.62;3.07;2.77;;;28.20;35.20;;;;;;2230199;62;20469;-64
2021/06/04 06:01:52;0.00;0.00;0.62;0.00;0.00;0.62;4.20;3.13;;;28.20;35.20;;;;;;2230035;62;20382;-67
2021/06/04 06:04:37;0.00;0.00;0.62;0.00;0.00;0.62;3.40;2.93;;;28.30;35.20;;;;;;2230114;62;20377;-66
2021/06/04 06:07:21;0.00;0.00;0.62;0.00;0.00;0.62;3.80;3.10;;;28.30;35.20;;;;;;2230333;62;20755;-66
2021/06/04 06:10:08;0.00;0.00;0.62;0.00;0.00;0.62;3.93;3.53;;;28.30;35.20;;;;;;2230086;62;20401;-67
2021/06/04 06:12:54;0.00;0.00;0.62;0.00;0.00;0.62;4.53;3.30;;;28.30;35.20;;;;;;2230009;62;20395;-67
2021/06/04 06:15:39;0.00;0.00;0.62;0.00;0.00;0.62;3.50;3.20;;;28.30;35.90;;;;;;2230265;62;20374;-67
2021/06/04 06:18:26;0.00;0.00;0.62;0.00;0.00;0.62;4.03;3.63;;;28.30;35.10;;;;;;2230144;62;20645;-66
2021/06/04 06:21:11;0.00;0.00;0.62;0.00;0.00;0.62;4.20;3.03;;;28.30;35.00;;;;;;2229852;62;20365;-65
2021/06/04 06:23:56;0.00;0.00;0.62;0.00;0.00;0.62;3.53;3.20;;;28.30;34.90;;;;;;2230155;62;20362;-71
2021/06/04 06:26:42;0.00;0.00;0.62;0.00;0.00;0.62;3.17;2.87;;;28.30;34.80;;;;;;2230538;62;20588;-68
2021/06/04 06:29:29;0.00;0.00;0.62;0.00;0.00;0.62;3.40;3.10;;;28.30;34.90;;;;;;2230160;62;20403;-73
2021/06/04 06:32:19;0.00;0.00;0.62;0.00;0.00;0.62;3.67;3.37;;;28.30;34.80;;;;;;2230023;62;20764;-74
2021/06/04 06:35:07;0.00;0.00;0.62;0.00;0.00;0.62;3.13;2.90;;;28.30;34.80;;;;;;2229654;62;20411;-68
2021/06/04 06:37:52;0.00;0.00;0.62;0.00;0.00;0.62;3.20;2.87;;;28.40;34.90;;;;;;2230153;62;20385;-67
2021/06/04 06:40:39;0.00;0.00;0.62;0.00;0.00;0.62;4.07;3.77;;;28.40;34.80;;;;;;2230020;62;20592;-66
2021/06/04 06:43:27;0.00;0.00;0.62;0.00;0.00;0.62;3.87;3.00;;;28.40;34.90;;;;;;2229884;62;20435;-66
2021/06/04 06:46:14;0.00;0.00;0.62;0.00;0.00;0.62;3.20;2.90;;;28.40;34.80;;;;;;2230020;62;20419;-69
2021/06/04 06:48:59;0.00;0.00;0.62;0.00;0.00;0.62;3.20;2.90;;;28.40;34.90;;;;;;2230078;62;20366;-72
2021/06/04 06:51:45;0.00;0.00;0.62;0.00;0.00;0.62;5.47;3.80;;;28.40;34.80;;;;;;2230119;62;20384;-65
2021/06/04 06:54:33;0.00;0.00;0.62;0.00;0.00;0.62;4.43;4.00;;;28.40;34.80;;;;;;2229930;62;20402;-74
2021/06/04 06:57:17;0.00;0.00;0.62;0.00;0.00;0.62;4.03;3.63;;;28.40;34.90;;;;;;2229612;62;20366;-69
2021/06/04 07:00:05;0.00;0.00;0.62;0.00;0.00;0.62;4.07;3.67;;;28.50;34.90;;;;;;2230262;62;20357;-67
2021/06/04 07:02:50;0.00;0.00;0.62;0.00;0.00;0.62;4.23;3.60;;;28.40;34.80;;;;;;2232090;62;20802;-68
2021/06/04 07:05:36;0.00;0.00;0.62;0.00;0.00;0.62;4.90;3.60;;;28.40;34.70;;;;;;2229604;62;20373;-67
2021/06/04 07:08:22;0.00;0.00;0.62;0.00;0.00;0.62;3.60;3.30;;;28.40;34.70;;;;;;2230087;62;20474;-69
2021/06/04 07:11:07;0.00;0.00;0.62;0.00;0.00;0.62;4.70;4.20;;;28.40;34.70;;;;;;2232256;62;20680;-69
2021/06/04 07:13:54;0.00;0.00;0.62;0.00;0.00;0.62;4.77;3.70;;;28.40;34.70;;;;;;2230130;62;20381;-75
2021/06/04 07:16:39;0.00;0.00;0.62;0.00;0.00;0.62;7.17;3.60;;;28.40;34.70;;;;;;2229942;62;20382;-69
2021/06/04 07:19:24;0.00;0.00;0.62;0.00;0.00;0.62;4.77;3.90;;;28.40;34.70;;;;;;2229885;62;20394;-69
2021/06/04 07:22:08;0.00;0.00;0.62;0.00;0.00;0.62;4.07;3.70;;;28.40;34.60;;;;;;2230146;62;20385;-73
2021/06/04 07:24:54;0.00;0.00;0.62;0.00;0.00;0.62;4.33;3.70;;;28.40;34.60;;;;;;2229833;62;20365;-67
2021/06/04 07:27:39;0.00;0.00;0.62;0.00;0.00;0.62;4.60;4.20;;;28.40;34.60;;;;;;2230002;62;20369;-73
2021/06/04 07:30:28;0.00;0.00;0.62;0.00;0.00;0.62;3.83;3.50;;;28.50;34.70;;;;;;2230001;62;20729;-68
2021/06/04 07:33:18;0.00;0.00;0.62;0.00;0.00;0.62;4.87;3.83;;;28.40;34.60;;;;;;2230065;62;20457;-67
2021/06/04 07:36:09;0.00;0.00;0.62;0.00;0.00;0.62;4.20;3.20;;;28.40;34.60;;;;;;2230139;62;20596;-68
2021/06/04 07:38:55;0.00;0.00;0.62;0.00;0.00;0.62;4.33;3.93;;;28.50;34.70;;;;;;2229803;62;20389;-70
2021/06/04 07:41:42;0.00;0.00;0.62;0.00;0.00;0.62;4.43;4.00;;;28.50;34.70;;;;;;2229827;62;20389;-69
2021/06/04 07:44:27;0.00;0.00;0.62;0.00;0.00;0.62;3.87;3.57;;;28.50;34.70;;;;;;2230076;62;20421;-71
2021/06/04 07:47:13;0.00;0.00;0.62;0.00;0.00;0.62;4.30;3.90;;;28.50;34.80;;;;;;2229975;62;20469;-70
2021/06/04 07:49:59;0.00;0.00;0.62;0.00;0.00;0.62;4.80;4.40;;;28.50;34.90;;;;;;2232275;62;20390;-74
2021/06/04 07:52:43;0.00;0.00;0.62;0.00;0.00;0.62;4.80;4.40;;;28.50;35.00;;;;;;2229735;62;20425;-67
2021/06/04 07:55:28;0.00;0.00;0.62;0.00;0.00;0.62;7.07;4.40;;;28.50;35.00;;;;;;2230085;62;20712;-67
2021/06/04 07:58:15;0.00;0.00;0.62;0.00;0.00;0.62;5.30;4.80;;;28.50;35.20;;;;;;2230125;62;20421;-67
2021/06/04 08:01:03;0.00;0.00;0.62;0.00;0.00;0.62;5.20;4.80;;;28.50;35.20;;;;;;2229694;62;20422;-66
2021/06/04 08:03:48;0.00;0.00;0.62;0.00;0.00;0.62;4.80;4.40;;;28.50;35.50;;;;;;2229768;62;20393;-68
2021/06/04 08:06:33;0.00;0.00;0.62;0.00;0.00;0.62;5.07;4.57;;;28.50;35.50;;;;;;2229991;62;20373;-69
2021/06/04 08:09:18;0.00;0.00;0.62;0.00;0.00;0.62;4.23;3.83;;;28.50;35.60;;;;;;2230257;62;20370;-67
2021/06/04 08:12:05;0.00;0.00;0.62;0.00;0.00;0.62;4.07;3.70;;;28.50;35.60;;;;;;2230452;62;20741;-67
2021/06/04 08:14:50;0.00;0.00;0.62;0.00;0.00;0.62;4.00;3.70;;;28.50;35.70;;;;;;2230576;62;20754;-69
2021/06/04 08:17:35;0.00;0.00;0.62;0.00;0.00;0.62;4.77;4.30;;;28.50;35.70;;;;;;2232994;62;20490;-73
2021/06/04 08:20:25;0.00;0.00;0.62;0.00;0.00;0.62;4.63;4.23;;;28.50;35.70;;;;;;2230653;62;20409;-70
2021/06/04 08:23:15;0.00;0.00;0.62;0.00;0.00;0.62;4.87;4.43;;;28.40;35.60;;;;;;2230429;62;20389;-73
2021/06/04 08:26:01;0.00;0.00;0.62;0.00;0.00;0.62;5.37;4.87;;;28.50;35.70;;;;;;2230514;62;20477;-67
2021/06/04 08:28:46;0.00;0.00;0.62;0.00;0.00;0.62;5.33;4.70;;;28.50;35.80;;;;;;2230554;62;20381;-66
2021/06/04 08:31:33;0.00;0.00;0.62;0.00;0.00;0.62;4.33;4.03;;;28.50;35.90;;;;;;2230465;62;20385;-68
2021/06/04 08:34:17;0.00;0.00;0.62;0.00;0.00;0.62;5.23;4.57;;;28.50;36.00;;;;;;2230437;62;20365;-66
2021/06/04 08:37:02;0.00;0.00;0.62;0.00;0.00;0.62;4.40;4.10;;;28.50;36.10;;;;;;2230627;62;20367;-74
2021/06/04 08:39:47;0.00;0.00;0.62;0.00;0.00;0.62;5.70;5.23;;;28.50;36.10;;;;;;2230805;62;20443;-65
2021/06/04 08:42:53;0.00;0.00;0.62;0.00;0.00;0.62;4.93;4.53;;;28.50;36.10;;;;;;2230489;62;20467;-68
2021/06/04 08:45:42;0.00;0.00;0.62;0.00;0.00;0.62;4.73;4.33;;;28.50;36.20;;;;;;2230497;62;20370;-67
2021/06/04 08:48:44;0.00;0.00;0.62;0.00;0.00;0.62;4.13;3.83;;;28.50;36.10;;;;;;2230424;62;20733;-66
2021/06/04 08:51:35;0.00;0.00;0.62;0.00;0.00;0.62;5.30;4.90;;;28.60;36.20;;;;;;2230461;62;20392;-67
2021/06/04 08:54:34;0.00;0.00;0.62;0.00;0.00;0.62;4.83;4.43;;;28.60;36.30;;;;;;2232845;62;20402;-67
2021/06/04 08:57:36;0.00;0.00;0.62;0.00;0.00;0.62;4.43;4.03;;;28.60;36.30;;;;;;2230412;62;20418;-68
2021/06/04 09:00:28;0.00;0.00;0.62;0.00;0.00;0.62;5.00;4.60;;;28.60;36.30;;;;;;2229949;62;20406;-71
2021/06/04 09:03:23;0.00;0.00;0.62;0.00;0.00;0.62;5.70;5.27;;;28.60;36.30;;;;;;2229926;62;20498;-73
2021/06/04 09:06:13;0.00;0.00;0.62;0.00;0.00;0.62;4.20;3.80;;;28.70;36.30;;;;;;2230669;62;20357;-67
2021/06/04 09:09:05;0.00;0.00;0.62;0.00;0.00;0.62;4.47;4.07;;;28.70;36.20;;;;;;2230403;62;20369;-68
2021/06/04 09:11:53;0.00;0.00;0.62;0.00;0.00;0.62;4.40;4.00;;;28.70;36.20;;;;;;2230106;62;20385;-67
2021/06/04 09:14:38;0.00;0.00;0.62;0.00;0.00;0.62;4.93;4.50;;;28.70;36.10;;;;;;2230328;62;20373;-67
2021/06/04 09:17:36;0.00;0.00;0.62;0.00;0.00;0.62;4.70;4.20;;;28.80;36.00;;;;;;2230291;62;20370;-68
2021/06/04 09:20:34;0.00;0.00;0.62;0.00;0.00;0.62;5.20;4.77;;;28.80;36.00;;;;;;2230242;62;20446;-69
2021/06/04 09:23:29;0.00;0.00;0.62;0.00;0.00;0.62;5.40;4.60;;;28.80;35.90;;;;;;2230309;62;20381;-69
2021/06/04 09:26:18;0.00;0.00;0.62;0.00;0.00;0.62;5.13;4.73;;;28.80;35.90;;;;;;2230422;62;20393;-66
2021/06/04 09:29:18;0.00;0.00;0.62;0.00;0.00;0.62;5.33;4.40;;;28.80;35.90;;;;;;2229753;62;20636;-69
2021/06/04 09:32:22;0.00;0.00;0.62;0.00;0.00;0.62;5.20;4.80;;;28.80;35.90;;;;;;2229873;62;20802;-70
2021/06/04 09:35:18;0.00;0.00;0.62;0.00;0.00;0.62;5.27;4.87;;;28.90;36.00;;;;;;2232290;62;20362;-66
2021/06/04 09:38:14;0.00;0.00;0.62;0.00;0.00;0.62;5.80;5.30;;;28.90;36.00;;;;;;2229948;62;20413;-67
2021/06/04 09:41:26;0.00;0.00;0.62;0.00;0.00;0.62;4.67;4.27;;;28.90;36.00;;;;;;2230046;62;20419;-65
2021/06/04 09:44:27;0.00;0.00;0.62;0.00;0.00;0.62;4.53;4.13;;;28.90;36.00;;;;;;2229906;62;20414;-64
2021/06/04 09:47:37;0.00;0.00;0.62;0.00;0.00;0.62;4.90;4.50;;;29.00;35.80;;;;;;2229893;62;20366;-66
2021/06/04 09:50:30;0.00;0.00;0.62;0.00;0.00;0.62;4.50;4.10;;;29.00;35.80;;;;;;2229948;62;20401;-66
2021/06/04 09:53:25;0.00;0.00;0.62;0.00;0.00;0.62;5.00;4.60;;;29.00;35.80;;;;;;2232173;62;20385;-65
2021/06/04 09:56:25;0.00;0.00;0.62;0.00;0.00;0.62;5.33;4.83;;;29.00;35.70;;;;;;2230020;62;20418;-74
2021/06/04 09:59:14;0.00;0.00;0.62;0.00;0.00;0.62;5.00;4.60;;;29.00;35.60;;;;;;2229946;62;20397;-73
2021/06/04 10:01:59;0.00;0.00;0.62;0.00;0.00;0.62;5.53;5.03;;;29.10;35.60;;;;;;2229743;62;20393;-66
2021/06/04 10:04:43;0.00;0.00;0.62;0.00;0.00;0.62;4.63;4.03;;;29.10;35.50;;;;;;2230070;62;20397;-65
2021/06/04 10:07:28;0.00;0.00;0.62;0.00;0.00;0.62;4.70;4.30;;;29.20;35.40;;;;;;2229953;62;20430;-68
2021/06/04 10:10:24;0.00;0.00;0.62;0.00;0.00;0.62;4.57;4.20;;;29.20;35.40;;;;;;2229744;62;20582;-71
2021/06/04 10:13:26;0.00;0.00;0.62;0.00;0.00;0.62;4.83;4.43;;;29.20;35.30;;;;;;2230128;62;20402;-73
2021/06/04 10:16:58;0.00;0.00;0.62;0.00;0.00;0.62;4.70;4.33;;;29.20;35.10;;;;;;2232323;62;20388;-73
2021/06/04 10:19:47;0.00;0.00;0.62;0.00;0.00;0.62;5.20;4.80;;;29.30;35.10;;;;;;2229862;62;20802;-71
2021/06/04 10:22:36;0.00;0.00;0.62;0.00;0.00;0.62;7.20;4.60;;;29.30;35.00;;;;;;2229861;62;20601;-67
2021/06/04 10:25:26;0.00;0.00;0.62;0.00;0.00;0.62;4.80;4.40;;;29.40;34.90;;;;;;2229992;62;20361;-73
2021/06/04 10:31:25;0.00;0.00;0.62;0.00;0.00;0.62;5.20;4.80;;;29.40;34.80;;;;;;1689593;73;20339;-73
2021/06/04 10:34:33;0.00;0.00;0.62;0.00;0.00;0.62;5.37;4.97;;;29.50;34.80;;;;;;2277203;61;20369;-73
2021/06/04 10:37:25;0.00;0.00;0.62;0.00;0.00;0.62;5.67;5.17;;;29.50;34.80;;;;;;2276988;61;20385;-71
2021/06/04 10:40:17;0.00;0.00;0.62;0.00;0.00;0.62;5.27;4.83;;;29.60;34.70;;;;;;2276962;61;20348;-69
2021/06/04 10:43:33;0.00;0.00;0.62;0.00;0.00;0.62;5.50;5.00;;;29.60;34.70;;;;;;2276857;61;20607;-68
2021/06/04 10:46:24;0.00;0.00;0.62;0.00;0.00;0.62;4.93;4.53;;;29.60;34.70;;;;;;2276902;61;20404;-69
2021/06/04 10:49:25;0.00;0.00;0.62;0.00;0.00;0.62;6.57;5.93;;;29.70;34.80;;;;;;2277047;61;20494;-66